createdAt,value
2022-09-13T00:01:27.097Z,58.40
2022-09-13T00:03:56.111Z,58.35
2022-09-13T00:06:26.300Z,57.90
2022-09-13T00:08:55.137Z,58.51
2022-09-13T00:11:26.680Z,58.72
2022-09-13T00:13:55.903Z,58.72
2022-09-13T00:16:27.129Z,58.97
2022-09-13T00:18:56.327Z,59.03
2022-09-13T00:21:27.842Z,59.26
2022-09-13T00:23:56.352Z,59.27
2022-09-13T00:26:26.875Z,59.48
2022-09-13T00:28:57.234Z,59.09
2022-09-13T00:31:27.559Z,58.87
2022-09-13T00:33:58.518Z,60.16
2022-09-13T00:36:29.076Z,59.88
2022-09-13T00:38:58.052Z,60.08
2022-09-13T00:41:26.927Z,59.92
2022-09-13T00:43:58.976Z,59.55
2022-09-13T00:46:35.444Z,59.75
2022-09-13T00:49:14.138Z,60.13
2022-09-13T00:51:46.674Z,59.64
2022-09-13T00:54:18.991Z,59.93
2022-09-13T00:56:51.635Z,59.49
2022-09-13T00:59:25.253Z,59.09
2022-09-13T01:01:56.234Z,59.04
2022-09-13T01:04:27.886Z,59.34
2022-09-13T01:07:00.759Z,59.68
2022-09-13T01:09:29.602Z,59.60
2022-09-13T01:12:04.513Z,59.72
2022-09-13T01:14:34.122Z,60.21
2022-09-13T01:17:02.997Z,59.61
2022-09-13T01:19:31.617Z,60.12
2022-09-13T01:22:35.828Z,59.51
2022-09-13T01:25:47.154Z,59.15
2022-09-13T01:28:53.590Z,58.80
2022-09-13T01:31:32.699Z,58.82
2022-09-13T01:34:15.147Z,58.52
2022-09-13T01:36:55.726Z,58.67
2022-09-13T01:39:35.396Z,57.86
2022-09-13T01:42:12.642Z,58.54
2022-09-13T01:44:50.988Z,58.81
2022-09-13T01:47:26.739Z,58.63
2022-09-13T01:50:02.747Z,59.03
2022-09-13T01:52:39.991Z,58.25
2022-09-13T01:55:12.754Z,58.49
2022-09-13T01:57:48.065Z,58.40
2022-09-13T02:00:20.354Z,58.23
2022-09-13T02:02:52.989Z,58.41
2022-09-13T02:05:26.059Z,58.13
2022-09-13T02:08:01.054Z,57.66
2022-09-13T02:10:35.283Z,58.55
2022-09-13T02:13:07.160Z,58.35
2022-09-13T02:15:38.738Z,58.24
2022-09-13T02:18:09.667Z,58.18
2022-09-13T02:20:40.209Z,58.12
2022-09-13T02:23:13.233Z,58.25
2022-09-13T02:25:42.626Z,58.51
2022-09-13T02:28:14.109Z,58.42
2022-09-13T02:30:47.218Z,58.19
2022-09-13T02:33:19.678Z,58.29
2022-09-13T02:35:52.443Z,58.13
2022-09-13T02:38:25.629Z,58.89
2022-09-13T02:40:58.331Z,58.60
2022-09-13T02:43:31.559Z,58.61
2022-09-13T02:46:11.833Z,59.22
2022-09-13T02:48:49.753Z,58.84
2022-09-13T02:51:25.668Z,58.97
2022-09-13T02:54:00.228Z,59.01
2022-09-13T02:56:35.495Z,58.52
2022-09-13T02:59:07.165Z,58.94
2022-09-13T03:01:36.781Z,58.64
2022-09-13T03:04:07.198Z,58.86
2022-09-13T03:06:36.190Z,58.76
2022-09-13T03:09:06.775Z,58.69
2022-09-13T03:11:44.649Z,59.11
2022-09-13T03:14:20.590Z,58.59
2022-09-13T03:17:02.881Z,58.62
2022-09-13T03:19:44.300Z,59.24
2022-09-13T03:22:24.951Z,59.43
2022-09-13T03:25:02.168Z,59.62
2022-09-13T03:27:35.734Z,58.81
2022-09-13T03:30:06.957Z,59.52
2022-09-13T03:32:42.422Z,58.58
2022-09-13T03:35:21.100Z,58.37
2022-09-13T03:37:58.581Z,58.47
2022-09-13T03:40:37.095Z,59.07
2022-09-13T03:43:09.637Z,59.63
2022-09-13T03:45:44.278Z,59.15
2022-09-13T03:48:13.504Z,59.82
2022-09-13T03:50:44.855Z,59.30
2022-09-13T03:53:16.529Z,60.15
2022-09-13T03:55:45.498Z,59.59
2022-09-13T03:58:14.807Z,60.65
2022-09-13T04:00:43.442Z,60.37
2022-09-13T04:03:12.771Z,59.18
2022-09-13T04:05:41.480Z,59.70
2022-09-13T04:08:11.456Z,59.81
2022-09-13T04:10:40.749Z,59.86
2022-09-13T04:13:09.304Z,59.38
2022-09-13T04:15:37.867Z,59.58
2022-09-13T04:18:06.768Z,59.57
2022-09-13T04:20:35.877Z,59.14
2022-09-13T04:23:04.915Z,59.43
2022-09-13T04:25:35.274Z,59.46
2022-09-13T04:28:04.006Z,59.39
2022-09-13T04:30:34.865Z,59.62
2022-09-13T04:33:03.682Z,59.75
2022-09-13T04:35:32.321Z,59.64
2022-09-13T04:38:00.928Z,59.96
2022-09-13T04:40:29.838Z,59.42
2022-09-13T04:42:59.737Z,59.90
2022-09-13T04:45:28.542Z,60.48
2022-09-13T04:47:57.728Z,59.64
2022-09-13T04:50:26.750Z,59.78
2022-09-13T04:52:56.429Z,59.80
2022-09-13T04:55:26.099Z,59.59
2022-09-13T04:57:56.042Z,59.55
2022-09-13T05:00:26.587Z,59.11
2022-09-13T05:02:57.982Z,60.17
2022-09-13T05:05:28.790Z,60.31
2022-09-13T05:07:57.393Z,60.26
2022-09-13T05:10:26.026Z,60.15
2022-09-13T05:12:55.739Z,59.77
2022-09-13T05:15:24.292Z,60.08
2022-09-13T05:17:54.197Z,60.36
2022-09-13T05:20:23.037Z,59.94
2022-09-13T05:22:51.621Z,59.91
2022-09-13T05:25:24.131Z,59.84
2022-09-13T05:27:54.737Z,59.95
2022-09-13T05:30:23.389Z,60.27
2022-09-13T05:32:51.998Z,60.65
2022-09-13T05:35:22.178Z,60.33
2022-09-13T05:37:50.763Z,59.90
2022-09-13T05:40:19.430Z,60.38
2022-09-13T05:42:48.226Z,59.79
2022-09-13T05:45:16.890Z,59.81
2022-09-13T05:47:45.436Z,60.55
2022-09-13T05:50:31.991Z,60.75
2022-09-13T05:53:04.483Z,60.72
2022-09-13T05:55:34.159Z,60.55
2022-09-13T05:58:03.368Z,59.19
2022-09-13T06:00:32.446Z,58.54
2022-09-13T06:03:01.262Z,58.21
2022-09-13T06:05:31.842Z,58.65
2022-09-13T06:08:03.022Z,58.20
2022-09-13T06:10:33.574Z,58.16
2022-09-13T06:13:02.393Z,57.85
2022-09-13T06:15:30.983Z,57.91
2022-09-13T06:17:59.808Z,57.72
2022-09-13T06:20:28.636Z,57.24
2022-09-13T06:22:57.209Z,55.59
2022-09-13T06:25:25.774Z,56.16
2022-09-13T06:27:56.041Z,56.10
2022-09-13T06:30:24.629Z,57.16
2022-09-13T06:32:53.234Z,55.47
2022-09-13T06:35:22.458Z,53.63
2022-09-13T06:37:51.033Z,53.19
2022-09-13T06:40:24.535Z,52.25
2022-09-13T06:42:54.146Z,53.58
2022-09-13T06:45:24.076Z,54.36
2022-09-13T06:47:55.109Z,52.94
2022-09-13T06:50:23.962Z,53.92
2022-09-13T06:52:52.535Z,53.92
2022-09-13T06:55:22.149Z,54.35
2022-09-13T06:57:51.000Z,52.71
2022-09-13T07:00:19.699Z,53.04
2022-09-13T07:02:52.983Z,52.02
2022-09-13T07:05:22.354Z,52.66
2022-09-13T07:07:51.143Z,53.13
2022-09-13T07:10:19.859Z,53.46
2022-09-13T07:12:48.725Z,50.96
2022-09-13T07:15:17.463Z,50.82
2022-09-13T07:17:46.042Z,50.38
2022-09-13T07:20:17.376Z,48.68
2022-09-13T07:22:45.974Z,49.21
2022-09-13T07:25:15.037Z,49.34
2022-09-13T07:27:43.576Z,48.84
2022-09-13T07:30:12.517Z,47.64
2022-09-13T07:32:42.592Z,47.07
2022-09-13T07:35:11.778Z,46.49
2022-09-13T07:37:42.362Z,47.53
2022-09-13T07:40:12.381Z,47.71
2022-09-13T07:42:40.972Z,48.41
2022-09-13T07:45:11.001Z,46.56
2022-09-13T07:47:39.856Z,47.26
2022-09-13T07:50:08.981Z,47.80
2022-09-13T07:52:38.138Z,47.59
2022-09-13T07:55:09.001Z,44.98
2022-09-13T07:57:37.548Z,45.48
2022-09-13T08:00:07.459Z,46.28
2022-09-13T08:02:40.307Z,46.92
2022-09-13T08:05:09.430Z,45.40
2022-09-13T08:07:37.961Z,45.64
2022-09-13T08:10:08.853Z,46.54
2022-09-13T08:12:37.800Z,46.17
2022-09-13T08:15:07.425Z,45.63
2022-09-13T08:17:36.011Z,46.25
2022-09-13T08:20:06.698Z,44.32
2022-09-13T08:22:35.254Z,44.35
2022-09-13T08:25:09.311Z,45.30
2022-09-13T08:27:38.316Z,44.18
2022-09-13T08:30:10.408Z,44.29
2022-09-13T08:32:39.275Z,44.46
2022-09-13T08:35:08.490Z,44.92
2022-09-13T08:37:37.103Z,44.67
2022-09-13T08:40:06.773Z,44.63
2022-09-13T08:42:49.283Z,43.63
2022-09-13T08:45:18.331Z,41.93
2022-09-13T08:47:49.428Z,43.10
2022-09-13T08:50:22.389Z,44.35
2022-09-13T08:53:04.943Z,42.77
2022-09-13T08:55:42.167Z,42.50
2022-09-13T08:58:26.055Z,42.60
2022-09-13T09:01:00.404Z,43.03
2022-09-13T09:03:33.348Z,42.78
2022-09-13T09:06:02.195Z,41.87
2022-09-13T09:08:34.364Z,41.76
2022-09-13T09:11:05.752Z,41.65
2022-09-13T09:13:38.718Z,41.86
2022-09-13T09:16:11.927Z,42.38
2022-09-13T09:18:44.700Z,41.44
2022-09-13T09:21:17.534Z,41.41
2022-09-13T09:23:50.414Z,41.27
2022-09-13T09:26:20.800Z,41.20
2022-09-13T09:28:52.069Z,41.70
2022-09-13T09:31:27.003Z,39.61
2022-09-13T09:34:08.948Z,41.56
2022-09-13T09:36:42.219Z,40.46
2022-09-13T09:39:13.074Z,39.59
2022-09-13T09:41:41.711Z,39.70
2022-09-13T09:44:19.852Z,38.08
2022-09-13T09:46:51.588Z,37.85
2022-09-13T09:49:43.101Z,37.77
2022-09-13T09:52:12.906Z,38.06
2022-09-13T09:54:41.746Z,37.34
2022-09-13T09:57:11.514Z,37.82
2022-09-13T09:59:41.709Z,39.02
2022-09-13T10:02:16.847Z,38.21
2022-09-13T10:04:55.872Z,38.06
2022-09-13T10:07:28.197Z,36.46
2022-09-13T10:10:03.383Z,34.50
2022-09-13T10:12:34.942Z,37.07
2022-09-13T10:15:08.315Z,36.22
2022-09-13T10:17:37.022Z,37.34
2022-09-13T10:20:21.703Z,37.61
2022-09-13T10:23:12.130Z,36.89
2022-09-13T10:25:45.922Z,37.28
2022-09-13T10:28:19.046Z,36.20
2022-09-13T10:30:53.643Z,36.55
2022-09-13T10:33:27.430Z,36.58
2022-09-13T10:35:58.137Z,37.26
2022-09-13T10:38:31.961Z,36.36
2022-09-13T10:41:02.377Z,35.95
2022-09-13T10:43:32.127Z,35.67
2022-09-13T10:46:04.654Z,35.63
2022-09-13T10:48:46.091Z,35.01
2022-09-13T10:51:37.107Z,35.28
2022-09-13T10:54:11.631Z,33.81
2022-09-13T10:56:40.438Z,33.54
2022-09-13T10:59:22.617Z,32.91
2022-09-13T11:02:06.043Z,34.46
2022-09-13T11:04:57.616Z,34.43
2022-09-13T11:07:43.738Z,34.41
2022-09-13T11:10:17.587Z,33.59
2022-09-13T11:12:54.543Z,34.09
2022-09-13T11:15:37.095Z,35.04
2022-09-13T11:18:30.875Z,33.73
2022-09-13T11:21:05.459Z,33.89
2022-09-13T11:23:52.683Z,33.24
2022-09-13T11:26:38.344Z,33.14
2022-09-13T11:29:16.231Z,32.58
2022-09-13T11:31:49.731Z,31.96
2022-09-13T11:34:38.837Z,33.33
2022-09-13T11:37:35.324Z,33.17
2022-09-13T11:40:24.411Z,32.75
2022-09-13T11:43:00.446Z,33.58
2022-09-13T11:45:30.426Z,33.17
2022-09-13T11:48:19.261Z,33.53
2022-09-13T11:50:57.031Z,32.81
2022-09-13T11:53:50.349Z,33.62
2022-09-13T11:56:23.783Z,31.58
2022-09-13T11:58:54.315Z,31.01
2022-09-13T12:01:26.929Z,31.67
2022-09-13T12:04:01.025Z,31.15
2022-09-13T12:06:33.482Z,31.67
2022-09-13T12:09:08.684Z,31.09
2022-09-13T12:11:41.440Z,29.45
2022-09-13T12:14:13.766Z,30.56
2022-09-13T12:16:45.066Z,31.02
2022-09-13T12:19:17.723Z,31.06
2022-09-13T12:21:49.180Z,32.28
2022-09-13T12:24:19.942Z,32.88
2022-09-13T12:26:53.290Z,31.80
2022-09-13T12:29:26.778Z,30.93
2022-09-13T12:32:00.346Z,31.82
2022-09-13T12:34:32.571Z,30.26
2022-09-13T12:37:35.644Z,31.39
2022-09-13T12:40:20.908Z,31.13
2022-09-13T12:43:01.948Z,31.06
2022-09-13T12:45:56.501Z,32.54
2022-09-13T12:48:36.302Z,32.36
2022-09-13T12:51:12.346Z,31.86
2022-09-13T12:54:13.258Z,32.72
2022-09-13T12:57:06.035Z,32.29
2022-09-13T12:59:56.418Z,32.95
2022-09-13T13:02:32.036Z,32.77
2022-09-13T13:05:04.178Z,33.87
2022-09-13T13:07:35.463Z,33.54
2022-09-13T13:10:06.555Z,33.11
2022-09-13T13:12:37.887Z,32.38
2022-09-13T13:15:15.662Z,33.06
2022-09-13T13:17:47.566Z,34.22
2022-09-13T13:20:48.791Z,34.07
2022-09-13T13:23:24.449Z,32.57
2022-09-13T13:26:08.969Z,33.17
2022-09-13T13:28:53.017Z,33.13
2022-09-13T13:31:36.619Z,32.12
2022-09-13T13:34:40.616Z,31.04
2022-09-13T13:37:32.281Z,30.59
2022-09-13T13:40:29.668Z,30.83
2022-09-13T13:43:30.943Z,30.65
2022-09-13T13:46:16.178Z,30.13
2022-09-13T13:48:45.054Z,30.50
2022-09-13T13:51:16.049Z,30.11
2022-09-13T13:53:47.851Z,30.33
2022-09-13T13:56:24.756Z,29.82
2022-09-13T13:58:56.919Z,29.74
2022-09-13T14:01:27.613Z,30.64
2022-09-13T14:04:26.888Z,30.31
2022-09-13T14:07:06.383Z,29.57
2022-09-13T14:09:45.015Z,29.29
2022-09-13T14:12:25.898Z,29.20
2022-09-13T14:15:10.260Z,29.81
2022-09-13T14:18:00.782Z,29.98
2022-09-13T14:20:29.829Z,29.22
2022-09-13T14:23:17.447Z,28.90
2022-09-13T14:25:46.768Z,28.32
2022-09-13T14:28:24.303Z,27.79
2022-09-13T14:30:59.247Z,26.92
2022-09-13T14:33:32.100Z,27.22
2022-09-13T14:36:04.593Z,27.31
2022-09-13T14:38:35.589Z,27.37
2022-09-13T14:41:14.478Z,28.34
2022-09-13T14:43:43.657Z,28.11
2022-09-13T14:46:18.830Z,27.91
2022-09-13T14:48:51.431Z,27.72
2022-09-13T14:51:24.666Z,27.30
2022-09-13T14:53:55.527Z,28.13
2022-09-13T14:56:34.644Z,27.55
2022-09-13T14:59:05.164Z,28.54
2022-09-13T15:01:35.875Z,28.42
2022-09-13T15:04:05.730Z,28.44
2022-09-13T15:06:38.367Z,28.96
2022-09-13T15:09:24.235Z,29.62
2022-09-13T15:12:01.153Z,29.94
2022-09-13T15:14:32.241Z,30.67
2022-09-13T15:17:08.977Z,32.11
2022-09-13T15:19:40.047Z,32.05
2022-09-13T15:22:18.900Z,32.09
2022-09-13T15:24:49.704Z,32.61
2022-09-13T15:27:29.462Z,35.40
2022-09-13T15:29:59.858Z,33.88
2022-09-13T15:32:35.380Z,33.26
2022-09-13T15:35:04.079Z,33.94
2022-09-13T15:37:36.969Z,33.77
2022-09-13T15:40:18.725Z,34.61
2022-09-13T15:42:52.188Z,33.41
2022-09-13T15:45:21.983Z,34.56
2022-09-13T15:47:53.349Z,35.87
2022-09-13T15:50:27.621Z,35.42
2022-09-13T15:52:58.850Z,35.71
2022-09-13T15:55:27.461Z,35.93
2022-09-13T15:57:56.469Z,36.78
2022-09-13T16:00:27.081Z,36.79
2022-09-13T16:02:57.112Z,37.84
2022-09-13T16:05:25.665Z,37.78
2022-09-13T16:07:58.806Z,37.68
2022-09-13T16:10:28.944Z,37.18
2022-09-13T16:12:57.861Z,37.94
2022-09-13T16:15:28.276Z,38.43
2022-09-13T16:17:58.476Z,38.44
2022-09-13T16:20:27.771Z,39.34
2022-09-13T16:22:56.456Z,39.00
2022-09-13T16:25:24.996Z,39.87
2022-09-13T16:27:55.277Z,40.01
2022-09-13T16:30:23.890Z,39.67
2022-09-13T16:32:53.005Z,40.25
2022-09-13T16:35:23.477Z,40.20
2022-09-13T16:37:52.656Z,40.00
2022-09-13T16:40:21.772Z,39.78
2022-09-13T16:42:50.766Z,41.16
2022-09-13T16:45:19.644Z,41.17
2022-09-13T16:47:48.261Z,41.19
2022-09-13T16:50:17.201Z,42.38
2022-09-13T16:52:47.112Z,42.37
2022-09-13T16:55:16.085Z,43.03
2022-09-13T16:57:48.192Z,43.55
2022-09-13T17:00:20.065Z,43.81
2022-09-13T17:02:48.984Z,44.30
2022-09-13T17:05:17.687Z,44.44
2022-09-13T17:07:47.593Z,44.37
2022-09-13T17:10:17.262Z,44.45
2022-09-13T17:12:45.866Z,45.27
2022-09-13T17:15:14.590Z,45.42
2022-09-13T17:17:43.428Z,44.42
2022-09-13T17:20:13.283Z,44.64
2022-09-13T17:22:42.227Z,44.69
2022-09-13T17:25:16.133Z,44.47
2022-09-13T17:27:44.753Z,44.60
2022-09-13T17:30:14.951Z,44.55
2022-09-13T17:32:43.574Z,44.18
2022-09-13T17:35:12.490Z,44.84
2022-09-13T17:37:41.343Z,44.51
2022-09-13T17:40:10.404Z,44.48
2022-09-13T17:42:40.342Z,45.22
2022-09-13T17:45:09.719Z,46.10
2022-09-13T17:47:38.275Z,45.72
2022-09-13T17:50:07.843Z,44.37
2022-09-13T17:52:36.851Z,46.06
2022-09-13T17:55:07.151Z,44.66
2022-09-13T17:57:36.006Z,46.18
2022-09-13T18:00:08.579Z,45.70
2022-09-13T18:02:37.793Z,45.56
2022-09-13T18:05:10.586Z,44.96
2022-09-13T18:07:42.011Z,46.23
2022-09-13T18:10:31.345Z,46.53
2022-09-13T18:13:00.326Z,46.74
2022-09-13T18:15:30.506Z,46.89
2022-09-13T18:17:59.352Z,47.29
2022-09-13T18:20:28.363Z,47.13
2022-09-13T18:22:57.363Z,47.02
2022-09-13T18:25:26.684Z,47.69
2022-09-13T18:27:55.964Z,48.02
2022-09-13T18:30:24.853Z,47.69
2022-09-13T18:32:55.625Z,47.42
2022-09-13T18:35:24.559Z,48.56
2022-09-13T18:37:53.543Z,48.79
2022-09-13T18:40:23.147Z,49.02
2022-09-13T18:42:52.249Z,48.97
2022-09-13T18:45:21.101Z,49.16
2022-09-13T18:47:49.920Z,48.94
2022-09-13T18:50:20.512Z,49.54
2022-09-13T18:52:49.442Z,49.56
2022-09-13T18:55:18.465Z,49.53
2022-09-13T18:57:47.714Z,49.59
2022-09-13T19:00:17.343Z,50.02
2022-09-13T19:03:08.465Z,49.95
2022-09-13T19:05:39.550Z,49.87
2022-09-13T19:08:10.585Z,51.22
2022-09-13T19:10:39.736Z,51.13
2022-09-13T19:13:11.272Z,51.26
2022-09-13T19:15:43.273Z,51.17
2022-09-13T19:18:12.383Z,51.53
2022-09-13T19:20:43.115Z,51.49
2022-09-13T19:23:12.105Z,51.47
2022-09-13T19:25:42.442Z,52.08
2022-09-13T19:28:11.578Z,51.84
2022-09-13T19:30:41.045Z,51.88
2022-09-13T19:33:11.188Z,51.86
2022-09-13T19:35:40.153Z,52.33
2022-09-13T19:38:11.197Z,52.75
2022-09-13T19:40:41.652Z,52.89
2022-09-13T19:43:10.986Z,52.27
2022-09-13T19:45:40.227Z,52.68
2022-09-13T19:51:03.985Z,53.06
2022-09-13T19:53:55.563Z,53.54
2022-09-13T19:56:31.100Z,53.07
2022-09-13T19:59:00.319Z,53.20
2022-09-13T20:01:31.765Z,52.98
2022-09-13T20:04:02.367Z,52.25
2022-09-13T20:06:36.180Z,52.18
2022-09-13T20:09:09.283Z,52.70
2022-09-13T20:11:42.632Z,53.18
2022-09-13T20:14:30.588Z,52.75
2022-09-13T20:16:59.504Z,52.75
2022-09-13T20:19:49.715Z,53.66
2022-09-13T20:22:17.837Z,53.62
2022-09-13T20:24:48.964Z,53.30
2022-09-13T20:27:17.878Z,53.84
2022-09-13T20:29:47.347Z,53.66
2022-09-13T20:32:19.062Z,54.14
2022-09-13T20:34:50.265Z,54.75
2022-09-13T20:37:19.734Z,54.85
2022-09-13T20:39:51.195Z,54.65
2022-09-13T20:42:20.074Z,54.99
2022-09-13T20:44:49.019Z,54.55
2022-09-13T20:47:18.053Z,54.50
2022-09-13T20:49:47.006Z,54.06
2022-09-13T20:52:16.471Z,54.08
2022-09-13T20:54:45.123Z,53.74
2022-09-13T20:57:14.999Z,54.04
2022-09-13T20:59:44.292Z,53.95
2022-09-13T21:02:12.941Z,53.38
2022-09-13T21:04:41.561Z,53.97
2022-09-13T21:07:29.749Z,54.30
2022-09-13T21:10:01.037Z,54.54
2022-09-13T21:12:32.041Z,54.42
2022-09-13T21:15:00.661Z,54.99
2022-09-13T21:17:29.279Z,55.27
2022-09-13T21:19:59.493Z,54.92
2022-09-13T21:22:29.262Z,54.99
2022-09-13T21:24:58.089Z,54.96
2022-09-13T21:27:26.658Z,54.51
2022-09-13T21:29:56.893Z,54.57
2022-09-13T21:32:25.810Z,54.74
2022-09-13T21:34:54.389Z,54.79
2022-09-13T21:37:22.969Z,54.84
2022-09-13T21:39:52.035Z,54.90
2022-09-13T21:42:20.605Z,55.09
2022-09-13T21:44:49.199Z,54.92
2022-09-13T21:47:19.398Z,55.18
2022-09-13T21:49:47.982Z,54.73
2022-09-13T21:52:16.702Z,54.70
2022-09-13T21:54:45.789Z,54.07
2022-09-13T21:57:14.454Z,54.37
2022-09-13T21:59:43.179Z,53.60
2022-09-13T22:02:12.390Z,53.94
2022-09-13T22:04:43.494Z,54.95
2022-09-13T22:07:13.444Z,54.83
2022-09-13T22:09:42.458Z,54.80
2022-09-13T22:12:11.007Z,55.11
2022-09-13T22:14:39.501Z,54.66
2022-09-13T22:17:08.334Z,54.76
2022-09-13T22:19:36.996Z,55.27
2022-09-13T22:22:06.951Z,55.46
2022-09-13T22:24:36.565Z,55.81
2022-09-13T22:27:07.137Z,55.71
2022-09-13T22:29:35.951Z,57.06
2022-09-13T22:32:04.867Z,56.84
2022-09-13T22:34:34.998Z,56.55
2022-09-13T22:37:03.810Z,56.72
2022-09-13T22:39:33.731Z,56.98
2022-09-13T22:42:02.285Z,56.83
2022-09-13T22:44:31.126Z,57.31
2022-09-13T22:47:00.535Z,57.49
2022-09-13T22:49:29.090Z,58.19
2022-09-13T22:52:00.428Z,57.45
2022-09-13T22:54:29.505Z,57.47
2022-09-13T22:57:00.928Z,56.65
2022-09-13T22:59:29.507Z,57.23
2022-09-13T23:01:58.411Z,59.24
2022-09-13T23:04:26.942Z,58.18
2022-09-13T23:06:55.500Z,58.52
2022-09-13T23:09:24.325Z,58.68
2022-09-13T23:11:52.876Z,57.80
2022-09-13T23:14:22.790Z,57.54
2022-09-13T23:16:52.251Z,58.23
2022-09-13T23:19:22.878Z,57.84
2022-09-13T23:21:53.550Z,57.90
2022-09-13T23:24:24.196Z,57.92
2022-09-13T23:26:55.303Z,57.90
2022-09-13T23:29:25.469Z,59.09
2022-09-13T23:31:54.575Z,59.40
2022-09-13T23:34:23.535Z,58.88
2022-09-13T23:36:52.487Z,59.00
2022-09-13T23:39:21.765Z,58.89
2022-09-13T23:41:53.149Z,58.61
2022-09-13T23:44:21.962Z,58.50
2022-09-13T23:46:52.243Z,58.96
2022-09-13T23:49:20.845Z,59.07
2022-09-13T23:51:49.935Z,59.58
2022-09-13T23:54:18.609Z,59.90
2022-09-13T23:56:47.205Z,59.75
2022-09-13T23:59:16.161Z,59.97
